There are multiple Weather-warnings   Click here for more information


Meteo18 Weather Cam more information Meteo18 Weather Cam


warning for Thunderstorms more information blitzortung!


Rain radar more information rain snow radar


Visit our other weather sites:

Template documentation
and downloads

And another site



Weather Underground History page Text

Daily Summary for March 28, 2017 Units:  Both    English   Metric
« Previous Day
Next Day »
Daily Weekly Monthly Yearly Custom
  High: Low: Average:
Temperature: 63.9 °F /  17.7 °C 45.9 °F /  7.7 °C 54.7 °F /  12.6 °C
Dew Point: 49.5 °F /  9.7 °C 39.7 °F /  4.3 °C 44.8 °F /  7.1 °C
Humidity: 87 % 51 % 70 %
Wind Speed: 13 mph /  20.9 km/h - 2.9 mph /  4.6 km/h
Wind Gust: 16 mph /  25.7 km/h - -
Wind:- - WSW
Pressure: 30.4 in /  1028.0 hPa 30.2 in /  1020.9 hPa -
Precipitation: 0 in /  0.0 mm    
Historical Graphs
 
 
Tabular Data for March 28, 2017
Time Temperature Dew Point Pressure Wind Wind Speed Wind Gust Humidity Rainfall Rate (Hourly)
00:12 50.5 °F /  10.3 °C 41.5 °F /  5.3 °C 30.2 in /  1020.9 hPa WNW 1 mph /  1.6 km/h 2 mph /  3.2 km/h 71 % 0 in /  0.0 mm
00:17 50.4 °F /  10.2 °C 41.7 °F /  5.4 °C 30.2 in /  1021.2 hPa WNW 1 mph /  1.6 km/h 2 mph /  3.2 km/h 72 % 0 in /  0.0 mm
00:22 50 °F /  10.0 °C 41.4 °F /  5.2 °C 30.2 in /  1021.2 hPa WNW 2 mph /  3.2 km/h 2 mph /  3.2 km/h 72 % 0 in /  0.0 mm
00:32 50.2 °F /  10.1 °C 41.2 °F /  5.1 °C 30.2 in /  1021.2 hPa WNW 2 mph /  3.2 km/h 3 mph /  4.8 km/h 71 % 0 in /  0.0 mm
00:37 49.8 °F /  9.9 °C 41.2 °F /  5.1 °C 30.2 in /  1021.2 hPa WNW 1 mph /  1.6 km/h 3 mph /  4.8 km/h 72 % 0 in /  0.0 mm
00:42 49.5 °F /  9.7 °C 41.2 °F /  5.1 °C 30.2 in /  1021.2 hPa WNW 1 mph /  1.6 km/h 3 mph /  4.8 km/h 73 % 0 in /  0.0 mm
00:52 49.3 °F /  9.6 °C 41 °F /  5.0 °C 30.2 in /  1021.2 hPa Calm   2 mph /  3.2 km/h 73 % 0 in /  0.0 mm
01:02 48.7 °F /  9.3 °C 40.8 °F /  4.9 °C 30.2 in /  1021.2 hPa Calm   1 mph /  1.6 km/h 74 % 0 in /  0.0 mm
01:12 49.3 °F /  9.6 °C 40.6 °F /  4.8 °C 30.2 in /  1021.2 hPa Calm   1 mph /  1.6 km/h 72 % 0 in /  0.0 mm
01:17 49.3 °F /  9.6 °C 40.6 °F /  4.8 °C 30.2 in /  1021.2 hPa Calm   1 mph /  1.6 km/h 72 % 0 in /  0.0 mm
01:22 48 °F /  8.9 °C 40.5 °F /  4.7 °C 30.2 in /  1021.2 hPa West 1 mph /  1.6 km/h 1 mph /  1.6 km/h 75 % 0 in /  0.0 mm
01:32 48 °F /  8.9 °C 40.5 °F /  4.7 °C 30.2 in /  1021.6 hPa Calm   2 mph /  3.2 km/h 75 % 0 in /  0.0 mm
01:37 48.6 °F /  9.2 °C 40.6 °F /  4.8 °C 30.2 in /  1021.6 hPa Calm   3 mph /  4.8 km/h 74 % 0 in /  0.0 mm
01:42 48.9 °F /  9.4 °C 40.6 °F /  4.8 °C 30.2 in /  1021.6 hPa NNE 3 mph /  4.8 km/h 3 mph /  4.8 km/h 73 % 0 in /  0.0 mm
01:47 48.6 °F /  9.2 °C 40.6 °F /  4.8 °C 30.2 in /  1021.6 hPa Calm   3 mph /  4.8 km/h 74 % 0 in /  0.0 mm
01:52 47.8 °F /  8.8 °C 40.3 °F /  4.6 °C 30.2 in /  1021.6 hPa Calm   3 mph /  4.8 km/h 75 % 0 in /  0.0 mm
01:57 47.8 °F /  8.8 °C 40.3 °F /  4.6 °C 30.2 in /  1021.6 hPa Calm   3 mph /  4.8 km/h 75 % 0 in /  0.0 mm
02:02 47.1 °F /  8.4 °C 39.9 °F /  4.4 °C 30.2 in /  1021.6 hPa Calm   3 mph /  4.8 km/h 76 % 0 in /  0.0 mm
02:07 47.8 °F /  8.8 °C 40.6 °F /  4.8 °C 30.2 in /  1021.6 hPa NE 3 mph /  4.8 km/h 3 mph /  4.8 km/h 76 % 0 in /  0.0 mm
02:12 48.4 °F /  9.1 °C 40.5 °F /  4.7 °C 30.2 in /  1021.6 hPa ENE 2 mph /  3.2 km/h 2 mph /  3.2 km/h 74 % 0 in /  0.0 mm
02:17 48 °F /  8.9 °C 40.1 °F /  4.5 °C 30.2 in /  1021.6 hPa Calm   4 mph /  6.4 km/h 74 % 0 in /  0.0 mm
02:22 46.9 °F /  8.3 °C 39.7 °F /  4.3 °C 30.2 in /  1021.9 hPa West 2 mph /  3.2 km/h 4 mph /  6.4 km/h 76 % 0 in /  0.0 mm
02:32 45.9 °F /  7.7 °C 39.7 °F /  4.3 °C 30.2 in /  1022.2 hPa SW 4 mph /  6.4 km/h 4 mph /  6.4 km/h 79 % 0 in /  0.0 mm
02:37 46.8 °F /  8.2 °C 40.6 °F /  4.8 °C 30.2 in /  1022.2 hPa SW 3 mph /  4.8 km/h 11 mph /  17.7 km/h 79 % 0 in /  0.0 mm
02:42 47.7 °F /  8.7 °C 40.8 °F /  4.9 °C 30.2 in /  1022.2 hPa SE 1 mph /  1.6 km/h 11 mph /  17.7 km/h 77 % 0 in /  0.0 mm
02:47 47.7 °F /  8.7 °C 40.8 °F /  4.9 °C 30.2 in /  1022.2 hPa Calm   11 mph /  17.7 km/h 77 % 0 in /  0.0 mm
02:52 47.7 °F /  8.7 °C 40.5 °F /  4.7 °C 30.2 in /  1022.2 hPa Calm   7 mph /  11.3 km/h 76 % 0 in /  0.0 mm
02:57 47.5 °F /  8.6 °C 41 °F /  5.0 °C 30.2 in /  1022.2 hPa West 1 mph /  1.6 km/h 3 mph /  4.8 km/h 78 % 0 in /  0.0 mm
03:02 48.4 °F /  9.1 °C 41.2 °F /  5.1 °C 30.2 in /  1021.9 hPa WNW 1 mph /  1.6 km/h 2 mph /  3.2 km/h 76 % 0 in /  0.0 mm
03:12 47.5 °F /  8.6 °C 40.6 °F /  4.8 °C 30.2 in /  1022.2 hPa NE 2 mph /  3.2 km/h 2 mph /  3.2 km/h 77 % 0 in /  0.0 mm
03:17 47.1 °F /  8.4 °C 40.6 °F /  4.8 °C 30.2 in /  1022.2 hPa Calm   2 mph /  3.2 km/h 78 % 0 in /  0.0 mm
03:22 47.1 °F /  8.4 °C 41 °F /  5.0 °C 30.2 in /  1022.2 hPa ESE 1 mph /  1.6 km/h 2 mph /  3.2 km/h 79 % 0 in /  0.0 mm
03:32 47.1 °F /  8.4 °C 40.6 °F /  4.8 °C 30.2 in /  1022.2 hPa Calm   2 mph /  3.2 km/h 78 % 0 in /  0.0 mm
03:37 47.1 °F /  8.4 °C 41 °F /  5.0 °C 30.2 in /  1022.2 hPa Calm   1 mph /  1.6 km/h 79 % 0 in /  0.0 mm
03:42 46.9 °F /  8.3 °C 40.8 °F /  4.9 °C 30.2 in /  1022.2 hPa Calm   1 mph /  1.6 km/h 79 % 0 in /  0.0 mm
03:47 46.8 °F /  8.2 °C 41 °F /  5.0 °C 30.2 in /  1022.2 hPa Calm     80 % 0 in /  0.0 mm
03:52 46.6 °F /  8.1 °C 40.8 °F /  4.9 °C 30.2 in /  1022.2 hPa Calm     80 % 0 in /  0.0 mm
03:57 46.6 °F /  8.1 °C 40.8 °F /  4.9 °C 30.2 in /  1022.2 hPa Calm     80 % 0 in /  0.0 mm
04:02 46.4 °F /  8.0 °C 40.6 °F /  4.8 °C 30.2 in /  1022.2 hPa Calm   1 mph /  1.6 km/h 80 % 0 in /  0.0 mm
04:12 46.2 °F /  7.9 °C 40.6 °F /  4.8 °C 30.2 in /  1022.2 hPa Calm   1 mph /  1.6 km/h 81 % 0 in /  0.0 mm
04:17 46.2 °F /  7.9 °C 40.6 °F /  4.8 °C 30.2 in /  1022.2 hPa South 1 mph /  1.6 km/h 1 mph /  1.6 km/h 81 % 0 in /  0.0 mm
04:22 46 °F /  7.8 °C 40.5 °F /  4.7 °C 30.2 in /  1022.2 hPa Calm   2 mph /  3.2 km/h 81 % 0 in /  0.0 mm
04:27 45.9 °F /  7.7 °C 40.6 °F /  4.8 °C 30.2 in /  1022.6 hPa Calm   2 mph /  3.2 km/h 82 % 0 in /  0.0 mm
04:32 46 °F /  7.8 °C 41.2 °F /  5.1 °C 30.2 in /  1022.6 hPa SSW 1 mph /  1.6 km/h 2 mph /  3.2 km/h 83 % 0 in /  0.0 mm
04:37 46.4 °F /  8.0 °C 41.5 °F /  5.3 °C 30.2 in /  1022.6 hPa SSW 3 mph /  4.8 km/h 3 mph /  4.8 km/h 83 % 0 in /  0.0 mm
04:42 47.1 °F /  8.4 °C 41.9 °F /  5.5 °C 30.2 in /  1022.6 hPa SW 3 mph /  4.8 km/h 3 mph /  4.8 km/h 82 % 0 in /  0.0 mm
04:47 47.8 °F /  8.8 °C 42.3 °F /  5.7 °C 30.2 in /  1022.6 hPa SW 3 mph /  4.8 km/h 7 mph /  11.3 km/h 81 % 0 in /  0.0 mm
04:52 48 °F /  8.9 °C 42.4 °F /  5.8 °C 30.2 in /  1022.6 hPa SW 2 mph /  3.2 km/h 7 mph /  11.3 km/h 81 % 0 in /  0.0 mm
04:57 48.4 °F /  9.1 °C 42.4 °F /  5.8 °C 30.2 in /  1022.6 hPa Calm   7 mph /  11.3 km/h 80 % 0 in /  0.0 mm
05:02 47.8 °F /  8.8 °C 41.9 °F /  5.5 °C 30.2 in /  1022.6 hPa Calm   6 mph /  9.7 km/h 80 % 0 in /  0.0 mm
05:12 46.9 °F /  8.3 °C 41.7 °F /  5.4 °C 30.2 in /  1022.9 hPa Calm   2 mph /  3.2 km/h 82 % 0 in /  0.0 mm
05:17 46.8 °F /  8.2 °C 41.5 °F /  5.3 °C 30.2 in /  1022.9 hPa Calm   2 mph /  3.2 km/h 82 % 0 in /  0.0 mm
05:27 46.6 °F /  8.1 °C 42.1 °F /  5.6 °C 30.2 in /  1022.9 hPa SSW 1 mph /  1.6 km/h 1 mph /  1.6 km/h 84 % 0 in /  0.0 mm
05:32 46.8 °F /  8.2 °C 42.3 °F /  5.7 °C 30.2 in /  1022.9 hPa South 1 mph /  1.6 km/h 4 mph /  6.4 km/h 84 % 0 in /  0.0 mm
05:42 47.8 °F /  8.8 °C 43 °F /  6.1 °C 30.2 in /  1022.9 hPa South 2 mph /  3.2 km/h 4 mph /  6.4 km/h 83 % 0 in /  0.0 mm
05:52 48.6 °F /  9.2 °C 43.3 °F /  6.3 °C 30.2 in /  1022.9 hPa SW 3 mph /  4.8 km/h 7 mph /  11.3 km/h 82 % 0 in /  0.0 mm
06:02 49.5 °F /  9.7 °C 43.9 °F /  6.6 °C 30.2 in /  1022.9 hPa West 1 mph /  1.6 km/h 7 mph /  11.3 km/h 81 % 0 in /  0.0 mm
06:12 49.8 °F /  9.9 °C 44.2 °F /  6.8 °C 30.2 in /  1023.2 hPa WSW 1 mph /  1.6 km/h 7 mph /  11.3 km/h 81 % 0 in /  0.0 mm
06:17 49.6 °F /  9.8 °C 44.1 °F /  6.7 °C 30.2 in /  1023.2 hPa SW 1 mph /  1.6 km/h 7 mph /  11.3 km/h 81 % 0 in /  0.0 mm
06:22 49.5 °F /  9.7 °C 43.9 °F /  6.6 °C 30.2 in /  1023.2 hPa SE 1 mph /  1.6 km/h 3 mph /  4.8 km/h 81 % 0 in /  0.0 mm
06:32 48.7 °F /  9.3 °C 43.9 °F /  6.6 °C 30.2 in /  1023.2 hPa Calm   3 mph /  4.8 km/h 83 % 0 in /  0.0 mm
06:37 48.6 °F /  9.2 °C 43.7 °F /  6.5 °C 30.2 in /  1023.2 hPa Calm   2 mph /  3.2 km/h 83 % 0 in /  0.0 mm
06:42 48.4 °F /  9.1 °C 43.7 °F /  6.5 °C 30.2 in /  1023.2 hPa Calm   2 mph /  3.2 km/h 84 % 0 in /  0.0 mm
06:47 48.2 °F /  9.0 °C 43.9 °F /  6.6 °C 30.2 in /  1023.2 hPa SSW 3 mph /  4.8 km/h 3 mph /  4.8 km/h 85 % 0 in /  0.0 mm
06:52 48.6 °F /  9.2 °C 43.9 °F /  6.6 °C 30.2 in /  1023.2 hPa SW 3 mph /  4.8 km/h 5 mph /  8.0 km/h 84 % 0 in /  0.0 mm
07:02 49.6 °F /  9.8 °C 44.1 °F /  6.7 °C 30.2 in /  1023.2 hPa SW 2 mph /  3.2 km/h 5 mph /  8.0 km/h 81 % 0 in /  0.0 mm
07:07 50 °F /  10.0 °C 44.1 °F /  6.7 °C 30.2 in /  1023.2 hPa WSW 1 mph /  1.6 km/h 5 mph /  8.0 km/h 80 % 0 in /  0.0 mm
07:12 50.2 °F /  10.1 °C 43.9 °F /  6.6 °C 30.2 in /  1023.2 hPa Calm   4 mph /  6.4 km/h 79 % 0 in /  0.0 mm
07:17 50.2 °F /  10.1 °C 43.9 °F /  6.6 °C 30.2 in /  1023.2 hPa Calm   4 mph /  6.4 km/h 79 % 0 in /  0.0 mm
07:22 49.6 °F /  9.8 °C 43.7 °F /  6.5 °C 30.2 in /  1023.6 hPa Calm   2 mph /  3.2 km/h 80 % 0 in /  0.0 mm
07:32 48.2 °F /  9.0 °C 43.3 °F /  6.3 °C 30.2 in /  1023.6 hPa SSE 1 mph /  1.6 km/h 3 mph /  4.8 km/h 83 % 0 in /  0.0 mm
07:42 46.9 °F /  8.3 °C 43 °F /  6.1 °C 30.2 in /  1023.6 hPa SW 1 mph /  1.6 km/h 3 mph /  4.8 km/h 86 % 0 in /  0.0 mm
07:52 47.5 °F /  8.6 °C 42.8 °F /  6.0 °C 30.2 in /  1023.9 hPa Calm   3 mph /  4.8 km/h 84 % 0 in /  0.0 mm
07:57 47.1 °F /  8.4 °C 42.6 °F /  5.9 °C 30.2 in /  1023.9 hPa SSW 1 mph /  1.6 km/h 3 mph /  4.8 km/h 84 % 0 in /  0.0 mm
08:02 46.8 °F /  8.2 °C 42.3 °F /  5.7 °C 30.2 in /  1023.9 hPa SW 1 mph /  1.6 km/h 3 mph /  4.8 km/h 84 % 0 in /  0.0 mm
08:07 46.2 °F /  7.9 °C 41.9 °F /  5.5 °C 30.2 in /  1023.9 hPa Calm   3 mph /  4.8 km/h 85 % 0 in /  0.0 mm
08:12 46 °F /  7.8 °C 42.1 °F /  5.6 °C 30.2 in /  1023.9 hPa Calm   2 mph /  3.2 km/h 86 % 0 in /  0.0 mm
08:17 46 °F /  7.8 °C 42.4 °F /  5.8 °C 30.3 in /  1024.3 hPa Calm   2 mph /  3.2 km/h 87 % 0 in /  0.0 mm
08:22 46.4 °F /  8.0 °C 42.8 °F /  6.0 °C 30.3 in /  1024.3 hPa Calm     87 % 0 in /  0.0 mm
08:32 46.8 °F /  8.2 °C 43.2 °F /  6.2 °C 30.3 in /  1024.3 hPa ESE 1 mph /  1.6 km/h 2 mph /  3.2 km/h 87 % 0 in /  0.0 mm
08:37 46.9 °F /  8.3 °C 43.3 °F /  6.3 °C 30.3 in /  1024.6 hPa Calm   2 mph /  3.2 km/h 87 % 0 in /  0.0 mm
08:42 47.7 °F /  8.7 °C 44.1 °F /  6.7 °C 30.3 in /  1024.6 hPa Calm   2 mph /  3.2 km/h 87 % 0 in /  0.0 mm
08:52 48.7 °F /  9.3 °C 44.4 °F /  6.9 °C 30.3 in /  1024.6 hPa Calm   1 mph /  1.6 km/h 85 % 0 in /  0.0 mm
08:57 48.7 °F /  9.3 °C 44.1 °F /  6.7 °C 30.3 in /  1024.6 hPa Calm   1 mph /  1.6 km/h 84 % 0 in /  0.0 mm
09:02 49.5 °F /  9.7 °C 45.1 °F /  7.3 °C 30.3 in /  1024.6 hPa Calm     85 % 0 in /  0.0 mm
09:12 50.7 °F /  10.4 °C 45.1 °F /  7.3 °C 30.3 in /  1024.9 hPa Calm     81 % 0 in /  0.0 mm
09:22 51.1 °F /  10.6 °C 46 °F /  7.8 °C 30.3 in /  1024.9 hPa ESE 2 mph /  3.2 km/h   83 % 0 in /  0.0 mm
09:32 53.4 °F /  11.9 °C 48 °F /  8.9 °C 30.3 in /  1024.9 hPa Calm   3 mph /  4.8 km/h 82 % 0 in /  0.0 mm
09:42 54.3 °F /  12.4 °C 47.3 °F /  8.5 °C 30.3 in /  1024.9 hPa West 6 mph /  9.7 km/h 8 mph /  12.9 km/h 77 % 0 in /  0.0 mm
09:47 54.3 °F /  12.4 °C 46.9 °F /  8.3 °C 30.3 in /  1024.9 hPa West 5 mph /  8.0 km/h 8 mph /  12.9 km/h 76 % 0 in /  0.0 mm
09:57 54.7 °F /  12.6 °C 47.7 °F /  8.7 °C 30.3 in /  1025.3 hPa West 2 mph /  3.2 km/h 10 mph /  16.1 km/h 77 % 0 in /  0.0 mm
10:02 54.9 °F /  12.7 °C 47.5 °F /  8.6 °C 30.3 in /  1025.3 hPa SW 3 mph /  4.8 km/h 10 mph /  16.1 km/h 76 % 0 in /  0.0 mm
10:12 55.2 °F /  12.9 °C 47.5 °F /  8.6 °C 30.3 in /  1025.3 hPa SW 2 mph /  3.2 km/h 7 mph /  11.3 km/h 75 % 0 in /  0.0 mm
10:17 55.6 °F /  13.1 °C 47.8 °F /  8.8 °C 30.3 in /  1025.3 hPa SSW 2 mph /  3.2 km/h 7 mph /  11.3 km/h 75 % 0 in /  0.0 mm
10:22 55.6 °F /  13.1 °C 47.5 °F /  8.6 °C 30.3 in /  1025.3 hPa SW 2 mph /  3.2 km/h 7 mph /  11.3 km/h 74 % 0 in /  0.0 mm
10:32 55.8 °F /  13.2 °C 48 °F /  8.9 °C 30.3 in /  1025.3 hPa West 1 mph /  1.6 km/h 6 mph /  9.7 km/h 75 % 0 in /  0.0 mm
10:42 56.7 °F /  13.7 °C 48 °F /  8.9 °C 30.3 in /  1025.6 hPa West 4 mph /  6.4 km/h 5 mph /  8.0 km/h 73 % 0 in /  0.0 mm
10:47 56.8 °F /  13.8 °C 47.5 °F /  8.6 °C 30.3 in /  1025.6 hPa West 9 mph /  14.5 km/h 9 mph /  14.5 km/h 71 % 0 in /  0.0 mm
10:52 56.5 °F /  13.6 °C 47.1 °F /  8.4 °C 30.3 in /  1025.6 hPa WSW 7 mph /  11.3 km/h 10 mph /  16.1 km/h 71 % 0 in /  0.0 mm
11:02 56.7 °F /  13.7 °C 47.3 °F /  8.5 °C 30.3 in /  1025.6 hPa West 5 mph /  8.0 km/h 11 mph /  17.7 km/h 71 % 0 in /  0.0 mm
11:17 57 °F /  13.9 °C 48.7 °F /  9.3 °C 30.3 in /  1026.0 hPa South 2 mph /  3.2 km/h 9 mph /  14.5 km/h 74 % 0 in /  0.0 mm
11:22 57.2 °F /  14.0 °C 47.5 °F /  8.6 °C 30.3 in /  1026.0 hPa WSW 4 mph /  6.4 km/h 7 mph /  11.3 km/h 70 % 0 in /  0.0 mm
11:27 57.2 °F /  14.0 °C 47.8 °F /  8.8 °C 30.3 in /  1026.0 hPa WSW 3 mph /  4.8 km/h 7 mph /  11.3 km/h 71 % 0 in /  0.0 mm
11:32 57.4 °F /  14.1 °C 47.7 °F /  8.7 °C 30.3 in /  1026.0 hPa West 6 mph /  9.7 km/h 7 mph /  11.3 km/h 70 % 0 in /  0.0 mm
11:37 57.6 °F /  14.2 °C 47.5 °F /  8.6 °C 30.3 in /  1026.0 hPa WSW 7 mph /  11.3 km/h 7 mph /  11.3 km/h 69 % 0 in /  0.0 mm
11:42 57.7 °F /  14.3 °C 46.9 °F /  8.3 °C 30.3 in /  1026.0 hPa SW 2 mph /  3.2 km/h 10 mph /  16.1 km/h 67 % 0 in /  0.0 mm
11:52 57.9 °F /  14.4 °C 46.6 °F /  8.1 °C 30.3 in /  1026.0 hPa SW 5 mph /  8.0 km/h 10 mph /  16.1 km/h 66 % 0 in /  0.0 mm
11:57 58.3 °F /  14.6 °C 47.3 °F /  8.5 °C 30.3 in /  1026.0 hPa WSW 8 mph /  12.9 km/h 10 mph /  16.1 km/h 67 % 0 in /  0.0 mm
12:02 58.6 °F /  14.8 °C 47.3 °F /  8.5 °C 30.3 in /  1026.0 hPa West 3 mph /  4.8 km/h 9 mph /  14.5 km/h 66 % 0 in /  0.0 mm
12:12 59.2 °F /  15.1 °C 47.8 °F /  8.8 °C 30.3 in /  1026.0 hPa SE 2 mph /  3.2 km/h 9 mph /  14.5 km/h 66 % 0 in /  0.0 mm
12:17 59.7 °F /  15.4 °C 49.5 °F /  9.7 °C 30.3 in /  1026.3 hPa West 3 mph /  4.8 km/h 9 mph /  14.5 km/h 69 % 0 in /  0.0 mm
12:22 61 °F /  16.1 °C 48.4 °F /  9.1 °C 30.3 in /  1026.0 hPa West 6 mph /  9.7 km/h 7 mph /  11.3 km/h 63 % 0 in /  0.0 mm
12:32 60.4 °F /  15.8 °C 46.9 °F /  8.3 °C 30.3 in /  1026.3 hPa WNW 6 mph /  9.7 km/h 7 mph /  11.3 km/h 61 % 0 in /  0.0 mm
12:37 60.4 °F /  15.8 °C 48.2 °F /  9.0 °C 30.3 in /  1026.3 hPa West 6 mph /  9.7 km/h 9 mph /  14.5 km/h 64 % 0 in /  0.0 mm
12:42 60.3 °F /  15.7 °C 47.7 °F /  8.7 °C 30.3 in /  1026.3 hPa WSW 6 mph /  9.7 km/h 9 mph /  14.5 km/h 63 % 0 in /  0.0 mm
12:47 59.5 °F /  15.3 °C 47.8 °F /  8.8 °C 30.3 in /  1026.3 hPa West 8 mph /  12.9 km/h 9 mph /  14.5 km/h 65 % 0 in /  0.0 mm
12:52 59.5 °F /  15.3 °C 48.6 °F /  9.2 °C 30.3 in /  1026.3 hPa WNW 6 mph /  9.7 km/h 13 mph /  20.9 km/h 67 % 0 in /  0.0 mm
13:02 59.7 °F /  15.4 °C 48 °F /  8.9 °C 30.3 in /  1026.3 hPa West 7 mph /  11.3 km/h 13 mph /  20.9 km/h 65 % 0 in /  0.0 mm
13:12 59.5 °F /  15.3 °C 46.9 °F /  8.3 °C 30.3 in /  1026.3 hPa WNW 9 mph /  14.5 km/h 15 mph /  24.1 km/h 63 % 0 in /  0.0 mm
13:17 59.2 °F /  15.1 °C 46.9 °F /  8.3 °C 30.3 in /  1026.3 hPa WNW 7 mph /  11.3 km/h 15 mph /  24.1 km/h 64 % 0 in /  0.0 mm
13:22 59.2 °F /  15.1 °C 46.9 °F /  8.3 °C 30.3 in /  1026.3 hPa WNW 4 mph /  6.4 km/h 11 mph /  17.7 km/h 64 % 0 in /  0.0 mm
13:27 59.7 °F /  15.4 °C 48 °F /  8.9 °C 30.3 in /  1026.3 hPa NNW 6 mph /  9.7 km/h 11 mph /  17.7 km/h 65 % 0 in /  0.0 mm
13:32 60.3 °F /  15.7 °C 47.1 °F /  8.4 °C 30.3 in /  1026.3 hPa West 5 mph /  8.0 km/h 10 mph /  16.1 km/h 62 % 0 in /  0.0 mm
13:42 60.3 °F /  15.7 °C 48 °F /  8.9 °C 30.3 in /  1026.3 hPa WNW 6 mph /  9.7 km/h 10 mph /  16.1 km/h 64 % 0 in /  0.0 mm
13:52 60.4 °F /  15.8 °C 48.2 °F /  9.0 °C 30.3 in /  1026.3 hPa WSW 8 mph /  12.9 km/h 13 mph /  20.9 km/h 64 % 0 in /  0.0 mm
14:02 60.4 °F /  15.8 °C 46.9 °F /  8.3 °C 30.3 in /  1026.3 hPa WSW 6 mph /  9.7 km/h 12 mph /  19.3 km/h 61 % 0 in /  0.0 mm
14:12 60.3 °F /  15.7 °C 47.1 °F /  8.4 °C 30.3 in /  1026.3 hPa WSW 2 mph /  3.2 km/h 13 mph /  20.9 km/h 62 % 0 in /  0.0 mm
14:17 60.3 °F /  15.7 °C 46.8 °F /  8.2 °C 30.3 in /  1026.3 hPa West 6 mph /  9.7 km/h 13 mph /  20.9 km/h 61 % 0 in /  0.0 mm
14:22 60.4 °F /  15.8 °C 46 °F /  7.8 °C 30.3 in /  1026.3 hPa West 8 mph /  12.9 km/h 12 mph /  19.3 km/h 59 % 0 in /  0.0 mm
14:32 61.3 °F /  16.3 °C 48.2 °F /  9.0 °C 30.3 in /  1026.0 hPa WSW 8 mph /  12.9 km/h 12 mph /  19.3 km/h 62 % 0 in /  0.0 mm
14:37 61.5 °F /  16.4 °C 47.1 °F /  8.4 °C 30.3 in /  1026.3 hPa SW 6 mph /  9.7 km/h 11 mph /  17.7 km/h 59 % 0 in /  0.0 mm
14:47 62.4 °F /  16.9 °C 48.4 °F /  9.1 °C 30.3 in /  1026.0 hPa WSW 5 mph /  8.0 km/h 11 mph /  17.7 km/h 60 % 0 in /  0.0 mm
14:52 62.8 °F /  17.1 °C 46.4 °F /  8.0 °C 30.3 in /  1026.0 hPa WSW 6 mph /  9.7 km/h 11 mph /  17.7 km/h 55 % 0 in /  0.0 mm
14:57 61.9 °F /  16.6 °C 47.5 °F /  8.6 °C 30.3 in /  1026.0 hPa WSW 11 mph /  17.7 km/h 15 mph /  24.1 km/h 59 % 0 in /  0.0 mm
15:02 61.2 °F /  16.2 °C 47.1 °F /  8.4 °C 30.3 in /  1026.0 hPa West 5 mph /  8.0 km/h 15 mph /  24.1 km/h 60 % 0 in /  0.0 mm
15:12 61.7 °F /  16.5 °C 46.8 °F /  8.2 °C 30.3 in /  1026.0 hPa South 5 mph /  8.0 km/h 15 mph /  24.1 km/h 58 % 0 in /  0.0 mm
15:17 61.7 °F /  16.5 °C 47.3 °F /  8.5 °C 30.3 in /  1026.0 hPa WSW 5 mph /  8.0 km/h 13 mph /  20.9 km/h 59 % 0 in /  0.0 mm
15:22 61.7 °F /  16.5 °C 47.7 °F /  8.7 °C 30.3 in /  1026.0 hPa WSW 3 mph /  4.8 km/h 13 mph /  20.9 km/h 60 % 0 in /  0.0 mm
15:32 62.2 °F /  16.8 °C 46.8 °F /  8.2 °C 30.3 in /  1026.0 hPa SW 9 mph /  14.5 km/h 12 mph /  19.3 km/h 57 % 0 in /  0.0 mm
15:42 63.1 °F /  17.3 °C 46.8 °F /  8.2 °C 30.3 in /  1026.0 hPa South 1 mph /  1.6 km/h 13 mph /  20.9 km/h 55 % 0 in /  0.0 mm
15:52 63.1 °F /  17.3 °C 47.7 °F /  8.7 °C 30.3 in /  1026.0 hPa SW 11 mph /  17.7 km/h 14 mph /  22.5 km/h 57 % 0 in /  0.0 mm
15:57 63.3 °F /  17.4 °C 47.8 °F /  8.8 °C 30.3 in /  1026.0 hPa SW 7 mph /  11.3 km/h 16 mph /  25.7 km/h 57 % 0 in /  0.0 mm
16:02 63.1 °F /  17.3 °C 47.1 °F /  8.4 °C 30.3 in /  1026.0 hPa West 6 mph /  9.7 km/h 16 mph /  25.7 km/h 56 % 0 in /  0.0 mm
16:12 63.1 °F /  17.3 °C 47.1 °F /  8.4 °C 30.3 in /  1026.0 hPa SW 9 mph /  14.5 km/h 13 mph /  20.9 km/h 56 % 0 in /  0.0 mm
16:17 63 °F /  17.2 °C 46.9 °F /  8.3 °C 30.3 in /  1026.0 hPa West 7 mph /  11.3 km/h 14 mph /  22.5 km/h 56 % 0 in /  0.0 mm
16:22 63.3 °F /  17.4 °C 47.3 °F /  8.5 °C 30.3 in /  1026.0 hPa West 6 mph /  9.7 km/h 14 mph /  22.5 km/h 56 % 0 in /  0.0 mm
16:27 63.3 °F /  17.4 °C 46.9 °F /  8.3 °C 30.3 in /  1026.0 hPa WSW 11 mph /  17.7 km/h 14 mph /  22.5 km/h 55 % 0 in /  0.0 mm
16:32 63.1 °F /  17.3 °C 47.7 °F /  8.7 °C 30.3 in /  1026.0 hPa WSW 5 mph /  8.0 km/h 14 mph /  22.5 km/h 57 % 0 in /  0.0 mm
16:37 63.3 °F /  17.4 °C 47.8 °F /  8.8 °C 30.3 in /  1026.0 hPa WSW 11 mph /  17.7 km/h 14 mph /  22.5 km/h 57 % 0 in /  0.0 mm
16:42 63 °F /  17.2 °C 48 °F /  8.9 °C 30.3 in /  1026.0 hPa West 6 mph /  9.7 km/h 14 mph /  22.5 km/h 58 % 0 in /  0.0 mm
16:47 62.8 °F /  17.1 °C 46.9 °F /  8.3 °C 30.3 in /  1026.0 hPa WSW 5 mph /  8.0 km/h 14 mph /  22.5 km/h 56 % 0 in /  0.0 mm
16:52 62.8 °F /  17.1 °C 46.9 °F /  8.3 °C 30.3 in /  1026.0 hPa West 8 mph /  12.9 km/h 13 mph /  20.9 km/h 56 % 0 in /  0.0 mm
16:57 63.1 °F /  17.3 °C 47.1 °F /  8.4 °C 30.3 in /  1026.0 hPa SW 13 mph /  20.9 km/h 14 mph /  22.5 km/h 56 % 0 in /  0.0 mm
17:02 63 °F /  17.2 °C 46.9 °F /  8.3 °C 30.3 in /  1026.0 hPa West 7 mph /  11.3 km/h 14 mph /  22.5 km/h 56 % 0 in /  0.0 mm
17:12 62.8 °F /  17.1 °C 47.8 °F /  8.8 °C 30.3 in /  1026.0 hPa West 7 mph /  11.3 km/h 16 mph /  25.7 km/h 58 % 0 in /  0.0 mm
17:17 63 °F /  17.2 °C 48.4 °F /  9.1 °C 30.3 in /  1026.0 hPa WNW 5 mph /  8.0 km/h 16 mph /  25.7 km/h 59 % 0 in /  0.0 mm
17:22 63 °F /  17.2 °C 46.9 °F /  8.3 °C 30.3 in /  1025.6 hPa West 8 mph /  12.9 km/h 12 mph /  19.3 km/h 56 % 0 in /  0.0 mm
17:27 63 °F /  17.2 °C 46.6 °F /  8.1 °C 30.3 in /  1025.6 hPa WSW 8 mph /  12.9 km/h 12 mph /  19.3 km/h 55 % 0 in /  0.0 mm
17:32 63.1 °F /  17.3 °C 46.8 °F /  8.2 °C 30.3 in /  1026.0 hPa West 4 mph /  6.4 km/h 12 mph /  19.3 km/h 55 % 0 in /  0.0 mm
17:42 63.1 °F /  17.3 °C 47.1 °F /  8.4 °C 30.3 in /  1025.6 hPa WSW 4 mph /  6.4 km/h 12 mph /  19.3 km/h 56 % 0 in /  0.0 mm
17:52 63.9 °F /  17.7 °C 45.3 °F /  7.4 °C 30.3 in /  1025.6 hPa SW 10 mph /  16.1 km/h 12 mph /  19.3 km/h 51 % 0 in /  0.0 mm
17:57 63.7 °F /  17.6 °C 46.2 °F /  7.9 °C 30.3 in /  1026.0 hPa WSW 6 mph /  9.7 km/h 11 mph /  17.7 km/h 53 % 0 in /  0.0 mm
18:02 63.7 °F /  17.6 °C 46.2 °F /  7.9 °C 30.3 in /  1026.0 hPa West 7 mph /  11.3 km/h 11 mph /  17.7 km/h 53 % 0 in /  0.0 mm
18:12 63.7 °F /  17.6 °C 46.8 °F /  8.2 °C 30.3 in /  1026.0 hPa West 4 mph /  6.4 km/h 11 mph /  17.7 km/h 54 % 0 in /  0.0 mm
18:17 63.9 °F /  17.7 °C 46.9 °F /  8.3 °C 30.3 in /  1026.0 hPa West 6 mph /  9.7 km/h 10 mph /  16.1 km/h 54 % 0 in /  0.0 mm
18:22 63.7 °F /  17.6 °C 46.2 °F /  7.9 °C 30.3 in /  1026.0 hPa West 7 mph /  11.3 km/h 10 mph /  16.1 km/h 53 % 0 in /  0.0 mm
18:32 63.5 °F /  17.5 °C 46 °F /  7.8 °C 30.3 in /  1026.0 hPa WNW 4 mph /  6.4 km/h 10 mph /  16.1 km/h 53 % 0 in /  0.0 mm
18:37 63.5 °F /  17.5 °C 46 °F /  7.8 °C 30.3 in /  1026.0 hPa WSW 7 mph /  11.3 km/h 10 mph /  16.1 km/h 53 % 0 in /  0.0 mm
18:42 63.5 °F /  17.5 °C 46.6 °F /  8.1 °C 30.3 in /  1026.0 hPa SW 5 mph /  8.0 km/h 10 mph /  16.1 km/h 54 % 0 in /  0.0 mm
18:47 63.7 °F /  17.6 °C 46.2 °F /  7.9 °C 30.3 in /  1026.0 hPa WSW 6 mph /  9.7 km/h 11 mph /  17.7 km/h 53 % 0 in /  0.0 mm
18:52 63.7 °F /  17.6 °C 46.8 °F /  8.2 °C 30.3 in /  1026.0 hPa WNW 4 mph /  6.4 km/h 11 mph /  17.7 km/h 54 % 0 in /  0.0 mm
18:57 63.7 °F /  17.6 °C 46.2 °F /  7.9 °C 30.3 in /  1026.0 hPa WSW 7 mph /  11.3 km/h 10 mph /  16.1 km/h 53 % 0 in /  0.0 mm
19:02 63.3 °F /  17.4 °C 46.4 °F /  8.0 °C 30.3 in /  1026.0 hPa WSW 4 mph /  6.4 km/h 10 mph /  16.1 km/h 54 % 0 in /  0.0 mm
19:12 63.3 °F /  17.4 °C 46.4 °F /  8.0 °C 30.3 in /  1026.0 hPa SSW 4 mph /  6.4 km/h 11 mph /  17.7 km/h 54 % 0 in /  0.0 mm
19:17 63.3 °F /  17.4 °C 46.4 °F /  8.0 °C 30.3 in /  1026.0 hPa WSW 2 mph /  3.2 km/h 11 mph /  17.7 km/h 54 % 0 in /  0.0 mm
19:22 63.3 °F /  17.4 °C 46.4 °F /  8.0 °C 30.3 in /  1026.3 hPa West 4 mph /  6.4 km/h 9 mph /  14.5 km/h 54 % 0 in /  0.0 mm
19:27 63 °F /  17.2 °C 46.6 °F /  8.1 °C 30.3 in /  1026.3 hPa SSE 2 mph /  3.2 km/h 6 mph /  9.7 km/h 55 % 0 in /  0.0 mm
19:32 62.8 °F /  17.1 °C 46.4 °F /  8.0 °C 30.3 in /  1026.3 hPa West 3 mph /  4.8 km/h 7 mph /  11.3 km/h 55 % 0 in /  0.0 mm
19:42 62.4 °F /  16.9 °C 46.6 °F /  8.1 °C 30.3 in /  1026.3 hPa SW 5 mph /  8.0 km/h 7 mph /  11.3 km/h 56 % 0 in /  0.0 mm
19:47 62.2 °F /  16.8 °C 46.8 °F /  8.2 °C 30.3 in /  1026.3 hPa SW 4 mph /  6.4 km/h 9 mph /  14.5 km/h 57 % 0 in /  0.0 mm
19:52 61.9 °F /  16.6 °C 46.4 °F /  8.0 °C 30.3 in /  1026.3 hPa WSW 3 mph /  4.8 km/h 6 mph /  9.7 km/h 57 % 0 in /  0.0 mm
19:57 61.3 °F /  16.3 °C 46.4 °F /  8.0 °C 30.3 in /  1026.3 hPa SW 3 mph /  4.8 km/h 6 mph /  9.7 km/h 58 % 0 in /  0.0 mm
20:02 61.2 °F /  16.2 °C 46.2 °F /  7.9 °C 30.3 in /  1026.3 hPa SW 2 mph /  3.2 km/h 6 mph /  9.7 km/h 58 % 0 in /  0.0 mm
20:12 60.6 °F /  15.9 °C 46.2 °F /  7.9 °C 30.3 in /  1026.6 hPa WSW 4 mph /  6.4 km/h 6 mph /  9.7 km/h 59 % 0 in /  0.0 mm
20:17 60.3 °F /  15.7 °C 45.9 °F /  7.7 °C 30.3 in /  1026.6 hPa West 2 mph /  3.2 km/h 5 mph /  8.0 km/h 59 % 0 in /  0.0 mm
20:22 59.9 °F /  15.5 °C 46 °F /  7.8 °C 30.3 in /  1026.6 hPa WSW 3 mph /  4.8 km/h 5 mph /  8.0 km/h 60 % 0 in /  0.0 mm
20:32 59.4 °F /  15.2 °C 45.9 °F /  7.7 °C 30.3 in /  1026.6 hPa SW 3 mph /  4.8 km/h 6 mph /  9.7 km/h 61 % 0 in /  0.0 mm
20:42 58.8 °F /  14.9 °C 45.9 °F /  7.7 °C 30.3 in /  1026.6 hPa WSW 1 mph /  1.6 km/h 6 mph /  9.7 km/h 62 % 0 in /  0.0 mm
20:47 58.5 °F /  14.7 °C 45.9 °F /  7.7 °C 30.3 in /  1027.0 hPa West 2 mph /  3.2 km/h 5 mph /  8.0 km/h 63 % 0 in /  0.0 mm
20:52 58.3 °F /  14.6 °C 45.7 °F /  7.6 °C 30.3 in /  1027.0 hPa West 2 mph /  3.2 km/h 5 mph /  8.0 km/h 63 % 0 in /  0.0 mm
21:02 57.9 °F /  14.4 °C 45.9 °F /  7.7 °C 30.3 in /  1027.0 hPa West 2 mph /  3.2 km/h 3 mph /  4.8 km/h 64 % 0 in /  0.0 mm
21:12 57 °F /  13.9 °C 45.9 °F /  7.7 °C 30.3 in /  1027.0 hPa West 1 mph /  1.6 km/h 3 mph /  4.8 km/h 66 % 0 in /  0.0 mm
21:17 56.7 °F /  13.7 °C 45.9 °F /  7.7 °C 30.3 in /  1027.0 hPa West 1 mph /  1.6 km/h 3 mph /  4.8 km/h 67 % 0 in /  0.0 mm
21:22 56.5 °F /  13.6 °C 46 °F /  7.8 °C 30.3 in /  1027.0 hPa West 1 mph /  1.6 km/h 2 mph /  3.2 km/h 68 % 0 in /  0.0 mm
21:32 56.1 °F /  13.4 °C 45.7 °F /  7.6 °C 30.3 in /  1027.3 hPa Calm   1 mph /  1.6 km/h 68 % 0 in /  0.0 mm
21:42 55.4 °F /  13.0 °C 45.3 °F /  7.4 °C 30.4 in /  1027.7 hPa Calm   1 mph /  1.6 km/h 69 % 0 in /  0.0 mm
21:52 55.2 °F /  12.9 °C 45.7 °F /  7.6 °C 30.4 in /  1027.7 hPa Calm     70 % 0 in /  0.0 mm
21:57 55.4 °F /  13.0 °C 45.9 °F /  7.7 °C 30.4 in /  1027.7 hPa Calm     70 % 0 in /  0.0 mm
22:02 55.4 °F /  13.0 °C 45.9 °F /  7.7 °C 30.4 in /  1027.7 hPa Calm     70 % 0 in /  0.0 mm
22:12 54.9 °F /  12.7 °C 45.7 °F /  7.6 °C 30.4 in /  1027.7 hPa Calm     71 % 0 in /  0.0 mm
22:17 54.7 °F /  12.6 °C 45.5 °F /  7.5 °C 30.4 in /  1027.7 hPa West 1 mph /  1.6 km/h 1 mph /  1.6 km/h 71 % 0 in /  0.0 mm
22:22 54.7 °F /  12.6 °C 45.5 °F /  7.5 °C 30.4 in /  1027.7 hPa West 1 mph /  1.6 km/h 1 mph /  1.6 km/h 71 % 0 in /  0.0 mm
22:27 54.3 °F /  12.4 °C 45.5 °F /  7.5 °C 30.4 in /  1027.7 hPa Calm   2 mph /  3.2 km/h 72 % 0 in /  0.0 mm
22:32 54 °F /  12.2 °C 45.1 °F /  7.3 °C 30.4 in /  1027.7 hPa Calm   2 mph /  3.2 km/h 72 % 0 in /  0.0 mm
22:42 52.5 °F /  11.4 °C 44.8 °F /  7.1 °C 30.4 in /  1028.0 hPa West 1 mph /  1.6 km/h 1 mph /  1.6 km/h 75 % 0 in /  0.0 mm
22:47 52.3 °F /  11.3 °C 45 °F /  7.2 °C 30.4 in /  1028.0 hPa West 1 mph /  1.6 km/h 1 mph /  1.6 km/h 76 % 0 in /  0.0 mm
22:52 52 °F /  11.1 °C 44.6 °F /  7.0 °C 30.4 in /  1028.0 hPa Calm   1 mph /  1.6 km/h 76 % 0 in /  0.0 mm
22:57 51.8 °F /  11.0 °C 44.8 °F /  7.1 °C 30.4 in /  1028.0 hPa Calm   1 mph /  1.6 km/h 77 % 0 in /  0.0 mm
23:02 51.6 °F /  10.9 °C 44.6 °F /  7.0 °C 30.4 in /  1028.0 hPa Calm   1 mph /  1.6 km/h 77 % 0 in /  0.0 mm
23:12 51.4 °F /  10.8 °C 44.4 °F /  6.9 °C 30.4 in /  1028.0 hPa Calm   1 mph /  1.6 km/h 77 % 0 in /  0.0 mm
23:17 51.1 °F /  10.6 °C 44.4 °F /  6.9 °C 30.4 in /  1028.0 hPa Calm   1 mph /  1.6 km/h 78 % 0 in /  0.0 mm
23:22 50.9 °F /  10.5 °C 44.2 °F /  6.8 °C 30.4 in /  1028.0 hPa Calm     78 % 0 in /  0.0 mm
23:32 50.2 °F /  10.1 °C 43.9 °F /  6.6 °C 30.4 in /  1028.0 hPa Calm   1 mph /  1.6 km/h 79 % 0 in /  0.0 mm
23:42 49.5 °F /  9.7 °C 43.9 °F /  6.6 °C 30.4 in /  1028.0 hPa Calm     81 % 0 in /  0.0 mm
23:47 49.5 °F /  9.7 °C 44.2 °F /  6.8 °C 30.4 in /  1028.0 hPa Calm     82 % 0 in /  0.0 mm
23:52 49.8 °F /  9.9 °C 44.6 °F /  7.0 °C 30.4 in /  1028.0 hPa Calm     82 % 0 in /  0.0 mm
23:57 50.2 °F /  10.1 °C 44.6 °F /  7.0 °C 30.4 in /  1028.0 hPa Calm   1 mph /  1.6 km/h 81 % 0 in /  0.0 mm
Meteo18
Compliments of Weather Underground - 4 mb

Script developed by  Jim McMurry - jmcmurry@mwt.net Adapted for the template by  Wim van der Kuil - Leuven-Template.eu

You find our weather info also at:

European Weather Network

Weather Underground

Equipment we use:

Weather-station
Davis Vue

Weather-program
Meteohub

Weather-server
Raspberry PI 2 B+

Provider
1 and 1

Davis Vue

Meteohub

Raspberry PI 2 B+

1 and 1